createdAt,value
2018-12-07T00:00:47.411Z,34.4
2018-12-07T00:01:37.807Z,34.4
2018-12-07T00:02:27.037Z,34.4
2018-12-07T00:03:16.790Z,34.4
2018-12-07T00:04:07.252Z,34.4
2018-12-07T00:04:57.474Z,34.4
2018-12-07T00:05:47.557Z,34.4
2018-12-07T00:06:37.416Z,34.4
2018-12-07T00:24:46.453Z,34.3
2018-12-07T00:25:35.570Z,34.3
2018-12-07T00:26:25.525Z,34.3
2018-12-07T00:27:16.345Z,34.3
2018-12-07T00:28:05.551Z,34.3
2018-12-07T00:28:55.867Z,34.2
2018-12-07T00:29:46.319Z,34.2
2018-12-07T00:30:36.017Z,34.3
2018-12-07T00:31:26.330Z,34.2
2018-12-07T00:32:16.485Z,34.2
2018-12-07T00:33:06.170Z,34.3
2018-12-07T00:33:55.442Z,34.2
2018-12-07T00:34:46.714Z,34.2
2018-12-07T00:35:36.345Z,34.2
2018-12-07T00:36:26.492Z,34.2
2018-12-07T00:37:17.018Z,34.2
2018-12-07T00:38:06.790Z,34.2
2018-12-07T00:38:56.909Z,34.1
2018-12-07T00:39:46.657Z,34.1
2018-12-07T00:40:36.484Z,34.1
2018-12-07T00:41:27.312Z,34.1
2018-12-07T00:42:16.524Z,34.1
2018-12-07T00:43:07.414Z,34.1
2018-12-07T00:43:57.506Z,34.1
2018-12-07T00:44:48.320Z,34.1
2018-12-07T00:45:37.009Z,34.1
2018-12-07T00:46:26.544Z,34.1
2018-12-07T00:47:16.855Z,34.1
2018-12-07T00:48:06.934Z,34.1
2018-12-07T00:48:58.043Z,34.1
2018-12-07T00:49:46.859Z,34.1
2018-12-07T00:50:37.423Z,34.1
2018-12-07T00:51:27.158Z,34.1
2018-12-07T00:52:16.928Z,34.1
2018-12-07T00:53:07.534Z,34.1
2018-12-07T00:53:58.173Z,34.1
2018-12-07T00:54:47.644Z,34.1
2018-12-07T00:55:38.522Z,34.1
2018-12-07T00:56:27.320Z,34.1
2018-12-07T00:57:16.993Z,34.1
2018-12-07T00:58:08.189Z,34
2018-12-07T00:58:57.911Z,34
2018-12-07T00:59:48.280Z,34
2018-12-07T01:00:37.843Z,34.1
2018-12-07T01:01:28.098Z,34
2018-12-07T01:02:17.404Z,34
2018-12-07T01:03:08.358Z,34
2018-12-07T01:03:59.141Z,34
2018-12-07T01:04:48.070Z,34
2018-12-07T01:05:39.175Z,34
2018-12-07T01:06:28.465Z,33.9
2018-12-07T01:07:17.964Z,34
2018-12-07T01:08:08.562Z,33.9
2018-12-07T01:08:58.628Z,33.9
2018-12-07T01:09:48.692Z,33.9
2018-12-07T01:10:39.090Z,33.9
2018-12-07T01:11:28.250Z,33.9
2018-12-07T01:12:18.846Z,33.9
2018-12-07T01:13:08.731Z,33.9
2018-12-07T01:13:59.608Z,33.9
2018-12-07T01:14:49.322Z,33.9
2018-12-07T01:15:39.740Z,33.9
2018-12-07T01:16:28.327Z,33.9
2018-12-07T01:17:19.442Z,33.9
2018-12-07T01:18:09.562Z,33.9
2018-12-07T01:18:58.829Z,33.9
2018-12-07T01:19:49.381Z,33.9
2018-12-07T01:20:39.157Z,33.9
2018-12-07T01:21:29.777Z,33.9
2018-12-07T01:22:20.121Z,33.9
2018-12-07T01:23:09.076Z,33.9
2018-12-07T01:23:59.408Z,33.9
2018-12-07T01:24:49.448Z,33.9
2018-12-07T01:25:40.326Z,33.9
2018-12-07T01:26:29.912Z,33.8
2018-12-07T01:27:19.564Z,33.8
2018-12-07T01:28:09.409Z,33.8
2018-12-07T01:28:59.721Z,33.8
2018-12-07T01:29:50.409Z,33.8
2018-12-07T01:30:40.399Z,33.8
2018-12-07T01:31:31.049Z,33.8
2018-12-07T01:32:20.799Z,33.8
2018-12-07T01:33:10.016Z,33.8
2018-12-07T01:34:00.078Z,33.8
2018-12-07T01:34:50.974Z,33.8
2018-12-07T01:35:40.858Z,33.8
2018-12-07T01:36:29.983Z,33.8
2018-12-07T01:37:21.470Z,33.8
2018-12-07T01:38:10.371Z,33.8
2018-12-07T01:39:00.968Z,33.8
2018-12-07T01:39:49.653Z,33.8
2018-12-07T01:40:40.901Z,33.8
2018-12-07T01:41:30.632Z,33.8
2018-12-07T01:42:21.185Z,33.8
2018-12-07T01:43:10.977Z,33.8
2018-12-07T01:44:01.318Z,33.8
2018-12-07T01:44:51.118Z,33.8
2018-12-07T01:45:41.140Z,33.8
2018-12-07T01:46:31.252Z,33.7
2018-12-07T01:47:21.802Z,33.7
2018-12-07T01:48:11.627Z,33.7
2018-12-07T01:49:00.366Z,33.7
2018-12-07T01:49:51.251Z,33.7
2018-12-07T01:50:41.352Z,33.7
2018-12-07T01:51:31.432Z,33.7
2018-12-07T01:52:21.472Z,33.7
2018-12-07T01:53:10.455Z,33.7
2018-12-07T01:54:01.269Z,33.7
2018-12-07T01:54:51.349Z,33.6
2018-12-07T01:55:41.919Z,33.6
2018-12-07T01:56:31.902Z,33.6
2018-12-07T01:57:22.512Z,33.6
2018-12-07T01:58:12.589Z,33.6
2018-12-07T01:59:02.077Z,33.6
2018-12-07T01:59:52.126Z,33.6
2018-12-07T02:00:42.516Z,33.6
2018-12-07T02:01:32.514Z,33.6
2018-12-07T02:02:22.040Z,33.6
2018-12-07T02:03:11.522Z,33.6
2018-12-07T02:04:02.994Z,33.6
2018-12-07T02:04:52.833Z,33.6
2018-12-07T02:05:42.807Z,33.6
2018-12-07T02:06:32.041Z,33.6
2018-12-07T02:07:23.460Z,33.6
2018-12-07T02:08:13.226Z,33.6
2018-12-07T02:09:02.228Z,33.6
2018-12-07T02:09:52.291Z,33.6
2018-12-07T02:10:43.453Z,33.6
2018-12-07T02:11:32.941Z,33.6
2018-12-07T02:12:22.958Z,33.6
2018-12-07T02:13:13.345Z,33.5
2018-12-07T02:14:03.663Z,33.5
2018-12-07T02:14:52.891Z,33.6
2018-12-07T02:15:42.961Z,33.5
2018-12-07T02:16:32.453Z,33.5
2018-12-07T02:17:23.168Z,33.5
2018-12-07T02:18:13.435Z,33.5
2018-12-07T02:19:03.180Z,33.5
2018-12-07T02:19:53.782Z,33.5
2018-12-07T02:20:43.847Z,33.5
2018-12-07T02:21:33.370Z,33.5
2018-12-07T02:22:23.478Z,33.5
2018-12-07T02:23:13.732Z,33.5
2018-12-07T02:24:04.368Z,33.5
2018-12-07T02:24:53.575Z,33.4
2018-12-07T02:25:44.462Z,33.4
2018-12-07T02:26:33.987Z,33.5
2018-12-07T02:27:23.990Z,33.4
2018-12-07T02:28:14.139Z,33.4
2018-12-07T02:29:04.214Z,33.4
2018-12-07T02:29:53.948Z,33.4
2018-12-07T02:30:44.053Z,33.4
2018-12-07T02:31:34.632Z,33.4
2018-12-07T02:32:24.402Z,33.4
2018-12-07T02:33:15.322Z,33.4
2018-12-07T02:34:04.809Z,33.4
2018-12-07T02:34:55.129Z,33.4
2018-12-07T02:35:44.327Z,33.4
2018-12-07T02:36:34.982Z,33.4
2018-12-07T02:37:24.993Z,33.4
2018-12-07T02:38:15.349Z,33.4
2018-12-07T02:39:04.849Z,33.4
2018-12-07T02:39:55.178Z,33.4
2018-12-07T02:40:45.697Z,33.4
2018-12-07T02:41:35.015Z,33.4
2018-12-07T02:42:25.635Z,33.3
2018-12-07T02:43:15.466Z,33.3
2018-12-07T02:44:04.999Z,33.3
2018-12-07T02:44:55.557Z,33.3
2018-12-07T02:45:45.019Z,33.3
2018-12-07T02:46:35.637Z,33.3
2018-12-07T02:47:25.551Z,33.3
2018-12-07T02:48:14.943Z,33.3
2018-12-07T02:49:05.907Z,33.3
2018-12-07T02:49:55.926Z,33.3
2018-12-07T02:50:45.920Z,33.3
2018-12-07T02:51:35.709Z,33.3
2018-12-07T02:52:25.911Z,33.3
2018-12-07T02:53:15.264Z,33.3
2018-12-07T02:54:06.007Z,33.3
2018-12-07T02:54:55.646Z,33.3
2018-12-07T02:55:46.561Z,33.3
2018-12-07T02:56:35.565Z,33.3
2018-12-07T02:57:25.560Z,33.3
2018-12-07T02:58:16.180Z,33.3
2018-12-07T02:59:05.659Z,33.3
2018-12-07T02:59:56.375Z,33.3
2018-12-07T03:00:46.678Z,33.3
2018-12-07T03:01:35.832Z,33.3
2018-12-07T03:02:26.188Z,33.3
2018-12-07T03:03:16.510Z,33.3
2018-12-07T03:04:07.157Z,33.2
2018-12-07T03:04:56.321Z,33.3
2018-12-07T03:05:46.677Z,33.2
2018-12-07T03:06:36.742Z,33.2
2018-12-07T03:07:26.245Z,33.2
2018-12-07T03:08:17.121Z,33.2
2018-12-07T03:09:07.127Z,33.2
2018-12-07T03:09:56.679Z,33.2
2018-12-07T03:10:46.777Z,33.2
2018-12-07T03:11:36.552Z,33.2
2018-12-07T03:12:27.213Z,33.2
2018-12-07T03:13:16.919Z,33.1
2018-12-07T03:14:07.199Z,33.2
2018-12-07T03:14:57.598Z,33.1
2018-12-07T03:15:47.368Z,33.1
2018-12-07T03:16:37.990Z,33.1
2018-12-07T03:17:27.488Z,33.1
2018-12-07T03:18:17.242Z,33.1
2018-12-07T03:19:07.281Z,33.1
2018-12-07T03:19:57.704Z,33.1
2018-12-07T03:20:48.028Z,33.1
2018-12-07T03:21:38.323Z,33.1
2018-12-07T03:22:27.535Z,33.1
2018-12-07T03:23:18.144Z,33.1
2018-12-07T03:24:07.999Z,33.1
2018-12-07T03:24:58.378Z,33.1
2018-12-07T03:25:48.387Z,33.1
2018-12-07T03:26:38.389Z,33.1
2018-12-07T03:27:28.533Z,33.1
2018-12-07T03:28:18.256Z,33.1
2018-12-07T03:29:08.036Z,33.1
2018-12-07T03:29:58.167Z,33.1
2018-12-07T03:30:49.080Z,33.1
2018-12-07T03:31:39.045Z,33.1
2018-12-07T03:32:28.769Z,33.1
2018-12-07T03:33:18.905Z,33
2018-12-07T03:34:09.193Z,33.1
2018-12-07T03:34:58.932Z,33
2018-12-07T03:35:49.035Z,33
2018-12-07T03:36:38.800Z,33
2018-12-07T03:37:29.405Z,33
2018-12-07T03:38:18.912Z,33
2018-12-07T03:39:09.257Z,33
2018-12-07T03:39:58.982Z,33
2018-12-07T03:40:48.522Z,33
2018-12-07T03:41:38.892Z,33
2018-12-07T03:42:29.455Z,33
2018-12-07T03:43:18.745Z,33
2018-12-07T03:44:09.612Z,33
2018-12-07T03:45:02.447Z,33
2018-12-07T03:45:49.410Z,32.9
2018-12-07T03:46:38.683Z,32.9
2018-12-07T03:47:28.962Z,32.9
2018-12-07T03:48:20.126Z,32.9
2018-12-07T03:49:10.227Z,32.9
2018-12-07T03:50:00.237Z,32.9
2018-12-07T03:50:49.847Z,32.9
2018-12-07T03:51:39.622Z,32.9
2018-12-07T03:52:30.133Z,32.9
2018-12-07T03:53:20.486Z,32.9
2018-12-07T03:54:11.889Z,32.9
2018-12-07T03:55:00.823Z,32.9
2018-12-07T03:55:50.417Z,32.9
2018-12-07T03:56:40.420Z,32.9
2018-12-07T03:57:30.799Z,32.9
2018-12-07T03:58:20.291Z,32.9
2018-12-07T03:59:09.533Z,32.9
2018-12-07T04:00:00.722Z,32.8
2018-12-07T04:00:50.511Z,32.8
2018-12-07T04:01:40.827Z,32.8
2018-12-07T04:02:30.275Z,32.8
2018-12-07T04:03:21.283Z,32.8
2018-12-07T04:04:10.980Z,32.8
2018-12-07T04:05:01.006Z,32.8
2018-12-07T04:05:51.693Z,32.8
2018-12-07T04:06:41.146Z,32.8
2018-12-07T04:07:30.869Z,32.8
2018-12-07T04:08:20.577Z,32.8
2018-12-07T04:09:10.574Z,32.8
2018-12-07T04:10:00.649Z,32.8
2018-12-07T04:10:50.403Z,32.8
2018-12-07T04:11:40.485Z,32.8
2018-12-07T04:12:31.035Z,32.8
2018-12-07T04:13:21.118Z,32.8
2018-12-07T04:14:10.057Z,32.8
2018-12-07T04:15:01.039Z,32.8
2018-12-07T04:15:51.831Z,32.8
2018-12-07T04:16:41.506Z,32.8
2018-12-07T04:17:31.581Z,32.8
2018-12-07T04:18:22.010Z,32.8
2018-12-07T04:19:11.201Z,32.8
2018-12-07T04:20:02.333Z,32.8
2018-12-07T04:20:52.664Z,32.8
2018-12-07T04:21:41.640Z,32.7
2018-12-07T04:22:31.376Z,32.7
2018-12-07T04:23:22.276Z,32.7
2018-12-07T04:24:12.293Z,32.7
2018-12-07T04:25:01.555Z,32.7
2018-12-07T04:25:52.435Z,32.6
2018-12-07T04:26:42.532Z,32.7
2018-12-07T04:27:32.287Z,32.6
2018-12-07T04:28:22.092Z,32.7
2018-12-07T04:29:12.433Z,32.6
2018-12-07T04:30:01.905Z,32.6
2018-12-07T04:30:53.140Z,32.6
2018-12-07T04:31:42.040Z,32.6
2018-12-07T04:32:32.674Z,32.6
2018-12-07T04:33:23.036Z,32.6
2018-12-07T04:34:13.020Z,32.6
2018-12-07T04:35:03.105Z,32.6
2018-12-07T04:35:53.489Z,32.6
2018-12-07T04:36:42.937Z,32.6
2018-12-07T04:53:59.252Z,32.4
2018-12-07T04:54:48.991Z,32.4
2018-12-07T04:55:38.716Z,32.4
2018-12-07T04:56:29.076Z,32.4
2018-12-07T04:57:19.687Z,32.4
2018-12-07T04:58:09.764Z,32.4
2018-12-07T04:58:59.962Z,32.4
2018-12-07T04:59:49.909Z,32.4
2018-12-07T05:00:39.144Z,32.4
2018-12-07T05:01:30.038Z,32.4
2018-12-07T05:02:19.788Z,32.4
2018-12-07T05:03:09.583Z,32.4
2018-12-07T05:03:59.002Z,32.4
2018-12-07T05:04:49.974Z,32.4
2018-12-07T05:05:40.009Z,32.4
2018-12-07T05:06:29.495Z,32.4
2018-12-07T05:07:20.130Z,32.4
2018-12-07T05:08:10.463Z,32.4
2018-12-07T05:09:00.485Z,32.4
2018-12-07T05:09:50.095Z,32.3
2018-12-07T05:10:40.336Z,32.3
2018-12-07T05:11:30.200Z,32.3
2018-12-07T05:12:20.216Z,32.3
2018-12-07T05:13:09.960Z,32.3
2018-12-07T05:13:59.715Z,32.3
2018-12-07T05:14:50.918Z,32.3
2018-12-07T05:15:40.440Z,32.3
2018-12-07T05:16:30.526Z,32.3
2018-12-07T05:17:20.515Z,32.3
2018-12-07T05:18:10.597Z,32.3
2018-12-07T05:19:00.072Z,32.3
2018-12-07T05:19:50.995Z,32.3
2018-12-07T05:20:40.913Z,32.3
2018-12-07T05:21:30.811Z,32.3
2018-12-07T05:22:20.921Z,32.3
2018-12-07T05:23:10.132Z,32.3
2018-12-07T05:24:00.945Z,32.3
2018-12-07T05:24:51.812Z,32.3
2018-12-07T05:25:41.093Z,32.3
2018-12-07T05:26:31.492Z,32.3
2018-12-07T05:27:21.187Z,32.2
2018-12-07T05:28:11.510Z,32.3
2018-12-07T05:29:01.846Z,32.3
2018-12-07T05:29:51.412Z,32.2
2018-12-07T05:30:41.228Z,32.2
2018-12-07T05:31:32.023Z,32.2
2018-12-07T05:32:21.414Z,32.2
2018-12-07T05:33:11.854Z,32.2
2018-12-07T05:34:01.909Z,32.2
2018-12-07T05:34:51.526Z,32.2
2018-12-07T05:35:40.989Z,32.2
2018-12-07T05:36:32.174Z,32.2
2018-12-07T05:37:21.958Z,32.2
2018-12-07T05:38:10.878Z,32.2
2018-12-07T05:39:00.940Z,32.2
2018-12-07T05:39:52.141Z,32.2
2018-12-07T05:40:41.621Z,32.1
2018-12-07T05:41:32.030Z,32.1
2018-12-07T05:42:21.996Z,32.1
2018-12-07T05:43:12.148Z,32.1
2018-12-07T05:44:02.201Z,32.1
2018-12-07T05:44:52.447Z,32.1
2018-12-07T05:45:42.361Z,32.1
2018-12-07T05:46:32.727Z,32.1
2018-12-07T05:47:22.047Z,32.1
2018-12-07T05:48:12.106Z,32.1
2018-12-07T05:49:02.136Z,32.1
2018-12-07T05:49:52.488Z,32.1
2018-12-07T05:50:43.071Z,32.1
2018-12-07T05:51:33.491Z,32.1
2018-12-07T05:52:23.150Z,32.1
2018-12-07T05:53:13.258Z,32.1
2018-12-07T05:54:03.617Z,32.1
2018-12-07T05:54:53.093Z,32.1
2018-12-07T05:55:43.040Z,32.1
2018-12-07T05:56:32.934Z,32
2018-12-07T05:57:23.435Z,32.1
2018-12-07T05:58:13.553Z,32
2018-12-07T05:59:03.387Z,32
2018-12-07T05:59:53.171Z,32
2018-12-07T06:00:42.920Z,32
2018-12-07T06:01:33.277Z,32
2018-12-07T06:02:23.152Z,32
2018-12-07T06:03:13.144Z,32
2018-12-07T06:04:03.742Z,32
2018-12-07T06:04:53.199Z,32
2018-12-07T06:05:43.914Z,32
2018-12-07T06:06:33.344Z,32
2018-12-07T06:07:23.054Z,31.9
2018-12-07T06:08:13.617Z,32
2018-12-07T06:09:04.236Z,31.9
2018-12-07T06:09:53.258Z,31.9
2018-12-07T06:10:43.781Z,31.9
2018-12-07T06:11:34.184Z,31.9
2018-12-07T06:12:23.926Z,31.9
2018-12-07T06:13:14.840Z,31.9
2018-12-07T06:14:04.026Z,31.9
2018-12-07T06:14:53.837Z,31.9
2018-12-07T06:15:43.902Z,31.9
2018-12-07T06:16:34.593Z,31.9
2018-12-07T06:17:24.801Z,31.9
2018-12-07T06:18:14.683Z,31.9
2018-12-07T06:19:04.151Z,31.9
2018-12-07T06:19:54.218Z,31.9
2018-12-07T06:20:44.351Z,31.9
2018-12-07T06:21:34.670Z,31.9
2018-12-07T06:22:24.637Z,31.9
2018-12-07T06:23:14.967Z,31.9
2018-12-07T06:24:05.085Z,31.9
2018-12-07T06:24:55.193Z,31.9
2018-12-07T06:25:45.250Z,31.9
2018-12-07T06:26:34.995Z,31.9
2018-12-07T06:27:24.467Z,31.9
2018-12-07T06:28:15.095Z,31.9
2018-12-07T06:29:05.380Z,31.9
2018-12-07T06:29:55.267Z,31.9
2018-12-07T06:30:44.934Z,31.8
2018-12-07T06:31:34.997Z,31.8
2018-12-07T06:32:25.347Z,31.8
2018-12-07T06:33:15.907Z,31.8
2018-12-07T06:34:04.632Z,31.8
2018-12-07T06:34:55.542Z,31.8
2018-12-07T06:35:45.011Z,31.8
2018-12-07T06:36:34.856Z,31.8
2018-12-07T06:37:25.392Z,31.8
2018-12-07T06:38:15.457Z,31.8
2018-12-07T06:39:05.507Z,31.8
2018-12-07T06:39:57.424Z,31.8
2018-12-07T06:40:46.668Z,31.8
2018-12-07T06:41:35.941Z,31.8
2018-12-07T06:42:25.209Z,31.8
2018-12-07T06:43:16.133Z,31.8
2018-12-07T06:44:06.308Z,31.8
2018-12-07T06:44:57.331Z,31.8
2018-12-07T06:45:45.513Z,31.8
2018-12-07T06:46:35.735Z,31.8
2018-12-07T06:47:27.123Z,31.8
2018-12-07T06:48:16.461Z,31.8
2018-12-07T06:49:07.045Z,31.8
2018-12-07T06:49:57.015Z,31.8
2018-12-07T06:50:47.398Z,31.7
2018-12-07T06:51:36.963Z,31.7
2018-12-07T06:52:27.238Z,31.7
2018-12-07T06:53:16.952Z,31.7
2018-12-07T06:54:06.578Z,31.7
2018-12-07T06:54:56.500Z,31.7
2018-12-07T06:55:46.855Z,31.7
2018-12-07T06:56:37.252Z,31.7
2018-12-07T06:57:26.950Z,31.7
2018-12-07T06:58:17.350Z,31.6
2018-12-07T06:59:07.348Z,31.7
2018-12-07T06:59:56.909Z,31.6
2018-12-07T07:00:46.932Z,31.7
2018-12-07T07:01:37.799Z,31.7
2018-12-07T07:02:28.082Z,31.6
2018-12-07T07:03:17.443Z,31.6
2018-12-07T07:04:07.952Z,31.6
2018-12-07T07:04:57.987Z,31.6
2018-12-07T07:05:48.339Z,31.6
2018-12-07T07:06:38.160Z,31.6
2018-12-07T07:07:26.837Z,31.6
2018-12-07T07:08:18.502Z,31.6
2018-12-07T07:09:08.097Z,31.6
2018-12-07T07:09:58.704Z,31.6
2018-12-07T07:10:48.724Z,31.6
2018-12-07T07:11:38.189Z,31.6
2018-12-07T07:12:30.424Z,31.6
2018-12-07T07:13:18.342Z,31.6
2018-12-07T07:14:08.067Z,31.6
2018-12-07T07:14:58.684Z,31.6
2018-12-07T07:15:48.489Z,31.6
2018-12-07T07:16:38.811Z,31.6
2018-12-07T07:17:28.392Z,31.6
2018-12-07T07:18:18.646Z,31.6
2018-12-07T07:19:08.734Z,31.6
2018-12-07T07:19:59.058Z,31.6
2018-12-07T07:20:48.794Z,31.6
2018-12-07T07:21:39.439Z,31.5
2018-12-07T07:22:29.211Z,31.5
2018-12-07T07:23:18.711Z,31.5
2018-12-07T07:24:09.431Z,31.5
2018-12-07T07:24:59.652Z,31.5
2018-12-07T07:25:49.801Z,31.5
2018-12-07T07:26:39.220Z,31.5
2018-12-07T07:27:29.333Z,31.5
2018-12-07T07:28:19.338Z,31.5
2018-12-07T07:29:10.312Z,31.5
2018-12-07T07:30:00.130Z,31.4
2018-12-07T07:30:50.053Z,31.5
2018-12-07T07:31:47.758Z,31.5
2018-12-07T07:32:29.622Z,31.4
2018-12-07T07:33:19.670Z,31.4
2018-12-07T07:34:10.273Z,31.4
2018-12-07T07:34:59.530Z,21.5
2018-12-07T07:35:50.132Z,20.9
2018-12-07T07:36:40.004Z,33.1
2018-12-07T07:37:30.214Z,38.8
2018-12-07T07:38:19.175Z,38.8
2018-12-07T07:39:10.832Z,38
2018-12-07T07:39:59.327Z,37.3
2018-12-07T07:40:50.182Z,36.9
2018-12-07T07:41:39.720Z,36.5
2018-12-07T07:42:30.946Z,36.2
2018-12-07T07:43:19.806Z,35.9
2018-12-07T07:44:11.494Z,35.7
2018-12-07T07:45:00.770Z,35.4
2018-12-07T07:45:50.519Z,35.3
2018-12-07T07:46:40.402Z,35.2
2018-12-07T07:47:30.924Z,35.1
2018-12-07T07:48:20.979Z,34.9
2018-12-07T07:49:10.549Z,34.9
2018-12-07T07:50:01.101Z,34.8
2018-12-07T07:50:50.691Z,34.6
2018-12-07T07:51:41.509Z,30.7
2018-12-07T07:52:30.989Z,35.8
2018-12-07T07:53:20.601Z,42.1
2018-12-07T07:54:11.399Z,44
2018-12-07T07:55:01.721Z,42.6
2018-12-07T07:55:51.775Z,40.3
2018-12-07T07:56:41.556Z,39.2
2018-12-07T07:57:31.061Z,39.1
2018-12-07T07:58:21.713Z,39.6
2018-12-07T07:59:10.431Z,40.6
2018-12-07T08:00:01.522Z,41.6
2018-12-07T08:00:52.418Z,42.4
2018-12-07T08:01:41.616Z,42.8
2018-12-07T08:02:32.907Z,42.8
2018-12-07T08:03:21.723Z,42.8
2018-12-07T08:04:11.263Z,42.9
2018-12-07T08:05:02.108Z,43.1
2018-12-07T08:05:52.158Z,43.2
2018-12-07T08:06:41.679Z,43.1
2018-12-07T08:07:32.018Z,42.9
2018-12-07T08:08:22.365Z,42.5
2018-12-07T08:09:12.718Z,42.2
2018-12-07T08:10:01.908Z,41.9
2018-12-07T08:10:53.056Z,41.6
2018-12-07T08:11:42.380Z,41.5
2018-12-07T08:12:32.460Z,41.5
2018-12-07T08:13:22.413Z,41.5
2018-12-07T08:14:12.800Z,41.4
2018-12-07T08:15:02.270Z,41.3
2018-12-07T08:15:52.392Z,41.1
2018-12-07T08:16:42.232Z,40.9
2018-12-07T08:17:32.487Z,40.8
2018-12-07T08:18:23.112Z,40.8
2018-12-07T08:19:12.507Z,40.9
2018-12-07T08:20:03.250Z,41.1
2018-12-07T08:20:52.746Z,41.4
2018-12-07T08:21:42.237Z,41.8
2018-12-07T08:22:33.045Z,42.3
2018-12-07T08:23:22.182Z,42.8
2018-12-07T08:24:13.759Z,43.2
2018-12-07T08:25:02.518Z,43.4
2018-12-07T08:25:52.854Z,43.6
2018-12-07T08:26:43.469Z,43.7
2018-12-07T08:27:33.967Z,43.7
2018-12-07T08:28:25.426Z,43.6
2018-12-07T08:29:14.103Z,43.6
2018-12-07T08:30:03.854Z,43.5
2018-12-07T08:30:54.267Z,43.6
2018-12-07T08:31:43.796Z,43.8
2018-12-07T08:32:33.748Z,44.1
2018-12-07T08:33:24.447Z,44.3
2018-12-07T08:34:13.602Z,44.3
2018-12-07T08:35:04.066Z,44.3
2018-12-07T08:35:54.591Z,44.1
2018-12-07T08:36:44.039Z,43.9
2018-12-07T08:37:34.079Z,43.8
2018-12-07T08:38:23.581Z,43.7
2018-12-07T08:39:14.480Z,43.7
2018-12-07T08:40:04.588Z,43.8
2018-12-07T08:40:55.128Z,43.8
2018-12-07T08:41:44.710Z,43.8
2018-12-07T08:42:34.455Z,43.7
2018-12-07T08:43:25.125Z,43.6
2018-12-07T08:44:15.110Z,43.6
2018-12-07T08:45:04.905Z,43.6
2018-12-07T08:45:53.845Z,43.6
2018-12-07T08:46:44.529Z,43.6
2018-12-07T08:47:34.545Z,43.5
2018-12-07T08:48:24.840Z,43.5
2018-12-07T08:49:14.904Z,43.4
2018-12-07T08:50:05.107Z,43.2
2018-12-07T08:50:55.315Z,42.9
2018-12-07T08:51:45.627Z,42.8
2018-12-07T08:52:34.902Z,42.7
2018-12-07T09:08:21.443Z,48.6
2018-12-07T09:09:11.603Z,49
2018-12-07T09:10:02.153Z,49.2
2018-12-07T09:10:51.911Z,49.3
2018-12-07T09:11:42.510Z,49.3
2018-12-07T09:12:32.064Z,49.4
2018-12-07T09:13:22.078Z,49.6
2018-12-07T09:14:12.106Z,49.7
2018-12-07T09:15:01.903Z,49.9
2018-12-07T09:15:51.698Z,50.2
2018-12-07T09:16:42.986Z,50.4
2018-12-07T09:17:32.315Z,50.7
2018-12-07T09:18:22.710Z,50.9
2018-12-07T09:19:12.443Z,51.1
2018-12-07T09:20:02.043Z,51.3
2018-12-07T09:20:59.982Z,51.4
2018-12-07T09:21:42.838Z,51.6
2018-12-07T09:22:32.393Z,51.7
2018-12-07T09:23:22.964Z,51.8
2018-12-07T09:25:02.308Z,52
2018-12-07T09:25:52.902Z,52.1
2018-12-07T09:26:43.289Z,52.2
2018-12-07T09:27:32.737Z,52.3
2018-12-07T09:29:12.855Z,52.6
2018-12-07T09:30:02.637Z,52.8
2018-12-07T09:30:52.997Z,52.9
2018-12-07T09:31:42.805Z,53.1
2018-12-07T09:32:33.363Z,53.3
2018-12-07T09:33:23.969Z,53.6
2018-12-07T09:34:13.200Z,53.7
2018-12-07T09:35:03.080Z,53.9
2018-12-07T09:35:52.752Z,54
2018-12-07T09:36:43.879Z,54.1
2018-12-07T09:37:35.359Z,54.3
2018-12-07T09:38:23.759Z,54.3
2018-12-07T09:39:13.804Z,54.4
2018-12-07T09:40:03.427Z,54.5
2018-12-07T09:40:53.356Z,54.6
2018-12-07T09:41:44.024Z,54.7
2018-12-07T09:42:33.256Z,54.7
2018-12-07T09:43:23.799Z,54.7
2018-12-07T09:44:14.429Z,54.8
2018-12-07T09:45:03.466Z,54.8
2018-12-07T09:45:54.534Z,55
2018-12-07T09:46:44.621Z,55.2
2018-12-07T09:47:33.641Z,55.3
2018-12-07T09:48:24.231Z,55.5
2018-12-07T09:49:14.374Z,55.6
2018-12-07T09:50:04.129Z,55.7
2018-12-07T09:50:54.071Z,55.8
2018-12-07T09:51:44.745Z,55.9
2018-12-07T09:52:35.001Z,56.1
2018-12-07T09:53:24.598Z,56.2
2018-12-07T09:54:14.590Z,56.3
2018-12-07T09:55:04.923Z,56.4
2018-12-07T09:55:55.363Z,56.6
2018-12-07T09:56:44.788Z,56.6
2018-12-07T09:57:35.405Z,56.8
2018-12-07T09:58:25.254Z,56.8
2018-12-07T09:59:14.650Z,56.9
2018-12-07T10:00:05.009Z,57.1
2018-12-07T10:00:55.823Z,57.1
2018-12-07T10:01:45.085Z,57.3
2018-12-07T10:02:34.794Z,57.3
2018-12-07T10:03:25.483Z,57.4
2018-12-07T10:04:15.866Z,57.5
2018-12-07T10:05:05.641Z,57.5
2018-12-07T10:05:55.091Z,57.6
2018-12-07T10:06:45.416Z,57.6
2018-12-07T10:07:35.584Z,57.7
2018-12-07T10:08:26.152Z,57.8
2018-12-07T10:09:15.872Z,57.9
2018-12-07T10:10:05.850Z,58
2018-12-07T10:10:55.460Z,58.1
2018-12-07T10:11:45.023Z,58.3
2018-12-07T10:12:35.962Z,58.3
2018-12-07T10:13:25.137Z,58.4
2018-12-07T10:14:15.968Z,58.5
2018-12-07T10:15:05.757Z,58.6
2018-12-07T10:15:56.071Z,58.8
2018-12-07T10:16:46.216Z,58.7
2018-12-07T10:18:26.205Z,58.4
2018-12-07T10:19:16.852Z,58.3
2018-12-07T10:20:07.027Z,58.2
2018-12-07T10:20:56.755Z,58.3
2018-12-07T10:21:46.189Z,58.3
2018-12-07T10:22:38.522Z,58.4
2018-12-07T10:23:26.705Z,58.2
2018-12-07T10:24:16.959Z,58.1
2018-12-07T10:25:07.517Z,58.2
2018-12-07T10:25:57.049Z,58.3
2018-12-07T10:26:47.392Z,58.5
2018-12-07T10:27:36.872Z,58.6
2018-12-07T10:28:26.669Z,58.8
2018-12-07T10:29:17.064Z,58.9
2018-12-07T10:30:07.924Z,58.9
2018-12-07T10:30:56.861Z,59
2018-12-07T10:31:47.719Z,59.1
2018-12-07T10:32:37.814Z,59.1
2018-12-07T10:33:27.084Z,59.2
2018-12-07T10:34:17.644Z,59.2
2018-12-07T10:35:07.749Z,59.3
2018-12-07T10:35:57.972Z,59.3
2018-12-07T10:36:47.779Z,59.3
2018-12-07T10:37:37.859Z,59.4
2018-12-07T10:38:27.874Z,59.4
2018-12-07T10:39:17.486Z,59.5
2018-12-07T10:40:07.861Z,59.6
2018-12-07T10:40:57.232Z,59.6
2018-12-07T10:41:48.451Z,59.6
2018-12-07T10:42:38.406Z,59.6
2018-12-07T10:43:28.016Z,59.7
2018-12-07T10:44:18.594Z,59.8
2018-12-07T10:45:07.848Z,59.8
2018-12-07T10:45:58.154Z,59.9
2018-12-07T10:46:48.493Z,59.9
2018-12-07T10:47:38.938Z,59.9
2018-12-07T10:48:27.499Z,60
2018-12-07T10:49:18.477Z,60.1
2018-12-07T10:50:08.471Z,60.1
2018-12-07T10:50:58.770Z,60.1
2018-12-07T10:51:49.142Z,60.2
2018-12-07T10:52:39.140Z,60.2
2018-12-07T10:53:29.003Z,60.3
2018-12-07T10:54:18.750Z,60.3
2018-12-07T10:55:11.034Z,60.4
2018-12-07T10:55:58.632Z,60.4
2018-12-07T10:56:49.264Z,60.4
2018-12-07T10:57:39.245Z,60.5
2018-12-07T10:58:29.336Z,60.6
2018-12-07T10:59:19.053Z,60.6
2018-12-07T11:00:09.400Z,60.6
2018-12-07T11:00:58.865Z,60.7
2018-12-07T11:01:49.452Z,60.6
2018-12-07T11:02:41.340Z,60.6
2018-12-07T11:03:28.892Z,60.6
2018-12-07T11:04:19.445Z,60.6
2018-12-07T11:05:10.022Z,60.6
2018-12-07T11:05:59.790Z,60.6
2018-12-07T11:06:49.940Z,60.6
2018-12-07T11:07:39.914Z,60.6
2018-12-07T11:08:29.731Z,60.6
2018-12-07T11:09:18.716Z,60.5
2018-12-07T11:10:09.407Z,60.5
2018-12-07T11:10:59.929Z,60.4
2018-12-07T11:11:49.986Z,60.4
2018-12-07T11:12:40.077Z,60.5
2018-12-07T11:13:30.047Z,60.5
2018-12-07T11:14:20.657Z,60.5
2018-12-07T11:15:10.007Z,60.5
2018-12-07T11:16:00.472Z,60.5
2018-12-07T11:16:50.564Z,60.5
2018-12-07T11:17:39.885Z,60.5
2018-12-07T11:18:31.227Z,60.5
2018-12-07T11:19:19.982Z,60.5
2018-12-07T11:20:10.306Z,60.5
2018-12-07T11:21:00.336Z,60.6
2018-12-07T11:21:50.696Z,60.6
2018-12-07T11:22:40.456Z,60.6
2018-12-07T11:23:30.286Z,60.6
2018-12-07T11:24:20.314Z,60.6
2018-12-07T11:25:10.346Z,60.6
2018-12-07T11:26:00.789Z,60.7
2018-12-07T11:26:50.741Z,60.7
2018-12-07T11:27:40.579Z,60.6
2018-12-07T11:28:30.388Z,60.6
2018-12-07T11:29:20.626Z,60.6
2018-12-07T11:30:11.048Z,60.6
2018-12-07T11:31:00.479Z,60.7
2018-12-07T11:31:51.648Z,60.7
2018-12-07T11:32:41.433Z,60.7
2018-12-07T11:33:31.480Z,60.8
2018-12-07T11:34:20.950Z,60.8
2018-12-07T11:35:11.163Z,60.8
2018-12-07T11:36:08.603Z,60.8
2018-12-07T11:36:51.176Z,60.8
2018-12-07T11:37:41.353Z,60.8
2018-12-07T11:38:31.907Z,60.9
2018-12-07T11:39:21.648Z,60.9
2018-12-07T11:40:12.010Z,60.9
2018-12-07T11:41:01.513Z,60.9
2018-12-07T11:41:51.790Z,60.9
2018-12-07T11:42:41.894Z,60.9
2018-12-07T11:43:31.905Z,60.9
2018-12-07T11:44:21.406Z,60.9
2018-12-07T11:45:12.021Z,60.9
2018-12-07T11:46:02.660Z,61
2018-12-07T11:46:51.786Z,61
2018-12-07T11:47:41.942Z,61
2018-12-07T11:48:32.279Z,61
2018-12-07T11:49:21.765Z,61
2018-12-07T11:50:12.580Z,61.1
2018-12-07T11:51:03.142Z,61.1
2018-12-07T11:51:52.487Z,61.1
2018-12-07T11:52:43.095Z,61.2
2018-12-07T11:53:33.177Z,61.2
2018-12-07T11:54:22.367Z,61.2
2018-12-07T11:55:13.027Z,61.3
2018-12-07T11:56:03.832Z,61.3
2018-12-07T11:56:53.064Z,61.3
2018-12-07T11:57:43.072Z,61.3
2018-12-07T11:58:32.368Z,61.4
2018-12-07T11:59:23.237Z,61.4
2018-12-07T12:00:13.527Z,61.5